sensor_id;sensor_type;location;lat;lon;timestamp;P1;durP1;ratioP1;P2;durP2;ratioP2
19593;SDS011;9944;48.240;16.478;2022-08-21T00:00:41;1.38;;;1.20;;
19593;SDS011;9944;48.240;16.478;2022-08-21T00:04:45;1.30;;;1.20;;
19593;SDS011;9944;48.240;16.478;2022-08-21T00:08:57;1.42;;;1.33;;
19593;SDS011;9944;48.240;16.478;2022-08-21T00:13:08;1.52;;;1.40;;
19593;SDS011;9944;48.240;16.478;2022-08-21T00:17:12;1.38;;;1.20;;
19593;SDS011;9944;48.240;16.478;2022-08-21T00:21:15;1.27;;;1.17;;
19593;SDS011;9944;48.240;16.478;2022-08-21T00:25:18;1.40;;;1.20;;
19593;SDS011;9944;48.240;16.478;2022-08-21T00:29:28;1.27;;;1.17;;
19593;SDS011;9944;48.240;16.478;2022-08-21T00:33:31;1.67;;;1.15;;
19593;SDS011;9944;48.240;16.478;2022-08-21T00:37:35;1.77;;;1.20;;
19593;SDS011;9944;48.240;16.478;2022-08-21T00:41:38;1.20;;;1.10;;
19593;SDS011;9944;48.240;16.478;2022-08-21T00:45:43;1.27;;;1.17;;
19593;SDS011;9944;48.240;16.478;2022-08-21T00:49:47;1.40;;;1.20;;
19593;SDS011;9944;48.240;16.478;2022-08-21T00:53:51;1.50;;;1.40;;
19593;SDS011;9944;48.240;16.478;2022-08-21T00:58:00;1.40;;;1.30;;
19593;SDS011;9944;48.240;16.478;2022-08-21T01:02:11;1.35;;;1.17;;
19593;SDS011;9944;48.240;16.478;2022-08-21T01:06:14;1.33;;;1.23;;
19593;SDS011;9944;48.240;16.478;2022-08-21T01:10:18;1.98;;;1.50;;
19593;SDS011;9944;48.240;16.478;2022-08-21T01:14:24;1.50;;;1.40;;
19593;SDS011;9944;48.240;16.478;2022-08-21T01:18:30;1.80;;;1.40;;
19593;SDS011;9944;48.240;16.478;2022-08-21T01:22:35;1.52;;;1.42;;
19593;SDS011;9944;48.240;16.478;2022-08-21T01:26:38;1.55;;;1.35;;
19593;SDS011;9944;48.240;16.478;2022-08-21T01:30:42;1.70;;;1.60;;
19593;SDS011;9944;48.240;16.478;2022-08-21T01:34:47;1.98;;;1.60;;
19593;SDS011;9944;48.240;16.478;2022-08-21T01:38:55;1.73;;;1.38;;
19593;SDS011;9944;48.240;16.478;2022-08-21T01:42:58;1.60;;;1.40;;
19593;SDS011;9944;48.240;16.478;2022-08-21T01:47:03;1.60;;;1.40;;
19593;SDS011;9944;48.240;16.478;2022-08-21T01:51:09;1.95;;;1.60;;
19593;SDS011;9944;48.240;16.478;2022-08-21T01:55:15;1.70;;;1.33;;
19593;SDS011;9944;48.240;16.478;2022-08-21T01:59:19;1.73;;;1.60;;
19593;SDS011;9944;48.240;16.478;2022-08-21T02:03:24;1.50;;;1.33;;
19593;SDS011;9944;48.240;16.478;2022-08-21T02:07:37;2.45;;;1.70;;
19593;SDS011;9944;48.240;16.478;2022-08-21T02:11:42;2.00;;;1.70;;
19593;SDS011;9944;48.240;16.478;2022-08-21T02:15:46;1.60;;;1.40;;
19593;SDS011;9944;48.240;16.478;2022-08-21T02:19:49;1.55;;;1.30;;
19593;SDS011;9944;48.240;16.478;2022-08-21T02:23:52;1.50;;;1.40;;
19593;SDS011;9944;48.240;16.478;2022-08-21T02:27:57;1.67;;;1.50;;
19593;SDS011;9944;48.240;16.478;2022-08-21T02:32:02;2.15;;;1.58;;
19593;SDS011;9944;48.240;16.478;2022-08-21T02:36:06;1.73;;;1.50;;
19593;SDS011;9944;48.240;16.478;2022-08-21T02:40:11;1.58;;;1.40;;
19593;SDS011;9944;48.240;16.478;2022-08-21T02:44:16;1.90;;;1.55;;
19593;SDS011;9944;48.240;16.478;2022-08-21T02:48:20;1.63;;;1.52;;
19593;SDS011;9944;48.240;16.478;2022-08-21T02:52:25;1.88;;;1.67;;
19593;SDS011;9944;48.240;16.478;2022-08-21T02:56:28;2.30;;;1.70;;
19593;SDS011;9944;48.240;16.478;2022-08-21T03:00:33;1.50;;;1.40;;
19593;SDS011;9944;48.240;16.478;2022-08-21T03:04:38;2.38;;;1.60;;
19593;SDS011;9944;48.240;16.478;2022-08-21T03:08:47;1.63;;;1.30;;
19593;SDS011;9944;48.240;16.478;2022-08-21T03:12:50;1.88;;;1.60;;
19593;SDS011;9944;48.240;16.478;2022-08-21T03:16:55;1.77;;;1.45;;
19593;SDS011;9944;48.240;16.478;2022-08-21T03:20:58;1.45;;;1.30;;
19593;SDS011;9944;48.240;16.478;2022-08-21T03:25:02;1.42;;;1.33;;
19593;SDS011;9944;48.240;16.478;2022-08-21T03:29:07;1.55;;;1.45;;
19593;SDS011;9944;48.240;16.478;2022-08-21T03:33:12;1.42;;;1.33;;
19593;SDS011;9944;48.240;16.478;2022-08-21T03:37:16;1.80;;;1.33;;
19593;SDS011;9944;48.240;16.478;2022-08-21T03:41:20;1.83;;;1.30;;
19593;SDS011;9944;48.240;16.478;2022-08-21T03:45:23;1.33;;;1.23;;
19593;SDS011;9944;48.240;16.478;2022-08-21T03:49:28;1.30;;;1.20;;
19593;SDS011;9944;48.240;16.478;2022-08-21T03:53:31;1.38;;;1.20;;
19593;SDS011;9944;48.240;16.478;2022-08-21T03:57:35;1.40;;;1.30;;
19593;SDS011;9944;48.240;16.478;2022-08-21T04:01:38;1.40;;;1.30;;
19593;SDS011;9944;48.240;16.478;2022-08-21T04:05:44;1.30;;;1.20;;
19593;SDS011;9944;48.240;16.478;2022-08-21T04:09:47;1.40;;;1.30;;
19593;SDS011;9944;48.240;16.478;2022-08-21T04:13:50;1.30;;;1.20;;
19593;SDS011;9944;48.240;16.478;2022-08-21T04:17:54;1.42;;;1.30;;
19593;SDS011;9944;48.240;16.478;2022-08-21T04:21:58;1.85;;;1.35;;
19593;SDS011;9944;48.240;16.478;2022-08-21T04:26:03;1.45;;;1.20;;
19593;SDS011;9944;48.240;16.478;2022-08-21T04:30:08;1.30;;;1.10;;
19593;SDS011;9944;48.240;16.478;2022-08-21T04:34:12;1.70;;;1.45;;
19593;SDS011;9944;48.240;16.478;2022-08-21T04:38:17;1.30;;;1.10;;
19593;SDS011;9944;48.240;16.478;2022-08-21T04:42:20;2.03;;;1.50;;
19593;SDS011;9944;48.240;16.478;2022-08-21T04:46:24;1.23;;;1.13;;
19593;SDS011;9944;48.240;16.478;2022-08-21T04:50:27;1.48;;;1.38;;
19593;SDS011;9944;48.240;16.478;2022-08-21T04:54:38;1.90;;;1.67;;
19593;SDS011;9944;48.240;16.478;2022-08-21T04:58:42;1.90;;;1.58;;
19593;SDS011;9944;48.240;16.478;2022-08-21T05:02:46;2.85;;;1.55;;
19593;SDS011;9944;48.240;16.478;2022-08-21T05:06:50;1.90;;;1.63;;
19593;SDS011;9944;48.240;16.478;2022-08-21T05:10:57;1.90;;;1.67;;
19593;SDS011;9944;48.240;16.478;2022-08-21T05:15:01;1.90;;;1.50;;
19593;SDS011;9944;48.240;16.478;2022-08-21T05:19:05;1.80;;;1.50;;
19593;SDS011;9944;48.240;16.478;2022-08-21T05:23:09;1.90;;;1.55;;
19593;SDS011;9944;48.240;16.478;2022-08-21T05:27:16;1.55;;;1.45;;
19593;SDS011;9944;48.240;16.478;2022-08-21T05:31:20;1.60;;;1.48;;
19593;SDS011;9944;48.240;16.478;2022-08-21T05:35:24;1.42;;;1.33;;
19593;SDS011;9944;48.240;16.478;2022-08-21T05:39:28;1.58;;;1.40;;
19593;SDS011;9944;48.240;16.478;2022-08-21T05:43:52;1.48;;;1.38;;
19593;SDS011;9944;48.240;16.478;2022-08-21T05:47:55;1.77;;;1.67;;
19593;SDS011;9944;48.240;16.478;2022-08-21T05:51:59;2.05;;;1.60;;
19593;SDS011;9944;48.240;16.478;2022-08-21T05:56:02;2.35;;;1.80;;
19593;SDS011;9944;48.240;16.478;2022-08-21T06:00:08;2.42;;;1.58;;
19593;SDS011;9944;48.240;16.478;2022-08-21T06:04:14;2.00;;;1.80;;
19593;SDS011;9944;48.240;16.478;2022-08-21T06:08:18;1.73;;;1.60;;
19593;SDS011;9944;48.240;16.478;2022-08-21T06:12:22;2.20;;;1.65;;
19593;SDS011;9944;48.240;16.478;2022-08-21T06:16:28;2.05;;;1.67;;
19593;SDS011;9944;48.240;16.478;2022-08-21T06:20:32;2.65;;;1.80;;
19593;SDS011;9944;48.240;16.478;2022-08-21T06:24:35;3.13;;;1.95;;
19593;SDS011;9944;48.240;16.478;2022-08-21T06:28:39;1.98;;;1.70;;
19593;SDS011;9944;48.240;16.478;2022-08-21T06:32:44;1.75;;;1.65;;
19593;SDS011;9944;48.240;16.478;2022-08-21T06:36:47;2.55;;;1.70;;
19593;SDS011;9944;48.240;16.478;2022-08-21T06:40:50;2.55;;;2.00;;
19593;SDS011;9944;48.240;16.478;2022-08-21T06:44:53;1.75;;;1.55;;
19593;SDS011;9944;48.240;16.478;2022-08-21T06:48:58;2.47;;;1.90;;
19593;SDS011;9944;48.240;16.478;2022-08-21T06:53:02;2.88;;;1.73;;
19593;SDS011;9944;48.240;16.478;2022-08-21T06:57:07;2.00;;;1.80;;
19593;SDS011;9944;48.240;16.478;2022-08-21T07:01:11;2.28;;;1.80;;
19593;SDS011;9944;48.240;16.478;2022-08-21T07:05:15;1.92;;;1.70;;
19593;SDS011;9944;48.240;16.478;2022-08-21T07:09:19;2.00;;;1.80;;
19593;SDS011;9944;48.240;16.478;2022-08-21T07:13:25;1.88;;;1.60;;
19593;SDS011;9944;48.240;16.478;2022-08-21T07:17:29;2.40;;;2.20;;
19593;SDS011;9944;48.240;16.478;2022-08-21T07:21:33;2.17;;;1.98;;
19593;SDS011;9944;48.240;16.478;2022-08-21T07:25:37;3.78;;;2.13;;
19593;SDS011;9944;48.240;16.478;2022-08-21T07:29:41;2.35;;;1.90;;
19593;SDS011;9944;48.240;16.478;2022-08-21T07:33:46;2.50;;;2.05;;
19593;SDS011;9944;48.240;16.478;2022-08-21T07:37:51;2.10;;;1.88;;
19593;SDS011;9944;48.240;16.478;2022-08-21T07:41:54;2.97;;;2.30;;
19593;SDS011;9944;48.240;16.478;2022-08-21T07:45:57;3.08;;;2.30;;
19593;SDS011;9944;48.240;16.478;2022-08-21T07:50:01;2.90;;;1.90;;
19593;SDS011;9944;48.240;16.478;2022-08-21T07:54:06;2.47;;;2.28;;
19593;SDS011;9944;48.240;16.478;2022-08-21T07:58:17;2.35;;;2.10;;
19593;SDS011;9944;48.240;16.478;2022-08-21T08:02:24;2.42;;;2.10;;
19593;SDS011;9944;48.240;16.478;2022-08-21T08:06:27;2.78;;;2.30;;
19593;SDS011;9944;48.240;16.478;2022-08-21T08:10:32;2.65;;;2.20;;
19593;SDS011;9944;48.240;16.478;2022-08-21T08:14:35;3.03;;;1.80;;
19593;SDS011;9944;48.240;16.478;2022-08-21T08:18:38;3.22;;;1.88;;
19593;SDS011;9944;48.240;16.478;2022-08-21T08:22:44;2.20;;;2.00;;
19593;SDS011;9944;48.240;16.478;2022-08-21T08:26:52;2.70;;;2.00;;
19593;SDS011;9944;48.240;16.478;2022-08-21T08:30:58;2.30;;;1.80;;
19593;SDS011;9944;48.240;16.478;2022-08-21T08:35:02;2.85;;;2.28;;
19593;SDS011;9944;48.240;16.478;2022-08-21T08:39:06;2.38;;;2.13;;
19593;SDS011;9944;48.240;16.478;2022-08-21T08:43:12;2.40;;;2.13;;
19593;SDS011;9944;48.240;16.478;2022-08-21T08:47:16;2.80;;;2.30;;
19593;SDS011;9944;48.240;16.478;2022-08-21T08:51:22;2.60;;;2.25;;
19593;SDS011;9944;48.240;16.478;2022-08-21T08:55:28;3.17;;;2.13;;
19593;SDS011;9944;48.240;16.478;2022-08-21T08:59:38;2.92;;;2.17;;
19593;SDS011;9944;48.240;16.478;2022-08-21T09:03:44;3.25;;;2.55;;
19593;SDS011;9944;48.240;16.478;2022-08-21T09:07:53;3.58;;;2.80;;
19593;SDS011;9944;48.240;16.478;2022-08-21T09:12:32;3.58;;;2.45;;
19593;SDS011;9944;48.240;16.478;2022-08-21T09:16:45;3.17;;;2.60;;
19593;SDS011;9944;48.240;16.478;2022-08-21T09:20:55;3.13;;;2.40;;
19593;SDS011;9944;48.240;16.478;2022-08-21T09:25:12;3.28;;;2.45;;
19593;SDS011;9944;48.240;16.478;2022-08-21T09:29:28;2.00;;;1.80;;
19593;SDS011;9944;48.240;16.478;2022-08-21T09:33:35;2.40;;;2.15;;
19593;SDS011;9944;48.240;16.478;2022-08-21T09:37:46;2.25;;;1.88;;
19593;SDS011;9944;48.240;16.478;2022-08-21T09:41:57;3.78;;;2.70;;
19593;SDS011;9944;48.240;16.478;2022-08-21T09:46:04;2.28;;;1.85;;
19593;SDS011;9944;48.240;16.478;2022-08-21T09:50:15;2.20;;;1.90;;
19593;SDS011;9944;48.240;16.478;2022-08-21T09:54:29;2.28;;;1.85;;
19593;SDS011;9944;48.240;16.478;2022-08-21T09:58:34;1.75;;;1.60;;
19593;SDS011;9944;48.240;16.478;2022-08-21T10:02:39;1.75;;;1.63;;
19593;SDS011;9944;48.240;16.478;2022-08-21T10:06:43;1.45;;;1.30;;
19593;SDS011;9944;48.240;16.478;2022-08-21T10:10:50;2.22;;;1.48;;
19593;SDS011;9944;48.240;16.478;2022-08-21T10:14:58;1.30;;;1.15;;
19593;SDS011;9944;48.240;16.478;2022-08-21T10:19:12;1.70;;;1.60;;
19593;SDS011;9944;48.240;16.478;2022-08-21T10:23:29;1.60;;;1.50;;
19593;SDS011;9944;48.240;16.478;2022-08-21T10:27:47;1.60;;;1.50;;
19593;SDS011;9944;48.240;16.478;2022-08-21T10:32:01;2.00;;;1.80;;
19593;SDS011;9944;48.240;16.478;2022-08-21T10:36:29;2.00;;;1.50;;
19593;SDS011;9944;48.240;16.478;2022-08-21T10:40:42;1.83;;;1.50;;
19593;SDS011;9944;48.240;16.478;2022-08-21T10:44:55;2.47;;;1.60;;
19593;SDS011;9944;48.240;16.478;2022-08-21T10:49:09;2.08;;;1.77;;
19593;SDS011;9944;48.240;16.478;2022-08-21T10:53:27;2.00;;;1.70;;
19593;SDS011;9944;48.240;16.478;2022-08-21T10:57:40;2.13;;;1.70;;
19593;SDS011;9944;48.240;16.478;2022-08-21T11:01:50;2.22;;;1.55;;
19593;SDS011;9944;48.240;16.478;2022-08-21T11:06:02;1.48;;;1.20;;
19593;SDS011;9944;48.240;16.478;2022-08-21T11:10:12;2.47;;;1.60;;
19593;SDS011;9944;48.240;16.478;2022-08-21T11:14:24;1.02;;;0.93;;
19593;SDS011;9944;48.240;16.478;2022-08-21T11:18:33;1.10;;;0.90;;
19593;SDS011;9944;48.240;16.478;2022-08-21T11:22:41;1.92;;;1.10;;
19593;SDS011;9944;48.240;16.478;2022-08-21T11:27:01;1.15;;;1.00;;
19593;SDS011;9944;48.240;16.478;2022-08-21T11:31:12;1.20;;;1.10;;
19593;SDS011;9944;48.240;16.478;2022-08-21T11:35:32;1.27;;;0.98;;
19593;SDS011;9944;48.240;16.478;2022-08-21T11:39:41;1.90;;;1.35;;
19593;SDS011;9944;48.240;16.478;2022-08-21T11:43:57;1.10;;;1.00;;
19593;SDS011;9944;48.240;16.478;2022-08-21T11:48:16;1.30;;;1.20;;
19593;SDS011;9944;48.240;16.478;2022-08-21T11:52:33;0.95;;;0.90;;
19593;SDS011;9944;48.240;16.478;2022-08-21T11:56:42;0.95;;;0.90;;
19593;SDS011;9944;48.240;16.478;2022-08-21T12:00:52;1.25;;;1.10;;
19593;SDS011;9944;48.240;16.478;2022-08-21T12:05:02;1.33;;;1.02;;
19593;SDS011;9944;48.240;16.478;2022-08-21T12:09:09;1.10;;;1.00;;
19593;SDS011;9944;48.240;16.478;2022-08-21T12:13:30;0.85;;;0.70;;
19593;SDS011;9944;48.240;16.478;2022-08-21T12:17:51;0.90;;;0.90;;
19593;SDS011;9944;48.240;16.478;2022-08-21T12:21:59;1.52;;;1.02;;
19593;SDS011;9944;48.240;16.478;2022-08-21T12:30:38;0.93;;;0.93;;
19593;SDS011;9944;48.240;16.478;2022-08-21T12:34:44;0.90;;;0.90;;
19593;SDS011;9944;48.240;16.478;2022-08-21T12:38:54;1.00;;;0.90;;
19593;SDS011;9944;48.240;16.478;2022-08-21T12:43:00;0.90;;;0.90;;
19593;SDS011;9944;48.240;16.478;2022-08-21T12:47:06;1.05;;;0.95;;
19593;SDS011;9944;48.240;16.478;2022-08-21T12:51:18;1.02;;;0.90;;
19593;SDS011;9944;48.240;16.478;2022-08-21T12:55:29;0.88;;;0.88;;
19593;SDS011;9944;48.240;16.478;2022-08-21T12:59:36;1.05;;;0.98;;
19593;SDS011;9944;48.240;16.478;2022-08-21T13:03:41;1.10;;;1.00;;
19593;SDS011;9944;48.240;16.478;2022-08-21T13:07:45;1.73;;;1.00;;
19593;SDS011;9944;48.240;16.478;2022-08-21T13:11:51;1.15;;;1.05;;
19593;SDS011;9944;48.240;16.478;2022-08-21T13:15:56;1.08;;;0.98;;
19593;SDS011;9944;48.240;16.478;2022-08-21T13:20:02;0.93;;;0.90;;
19593;SDS011;9944;48.240;16.478;2022-08-21T13:24:14;1.20;;;1.10;;
19593;SDS011;9944;48.240;16.478;2022-08-21T13:28:41;1.20;;;1.10;;
19593;SDS011;9944;48.240;16.478;2022-08-21T13:32:47;1.10;;;1.00;;
19593;SDS011;9944;48.240;16.478;2022-08-21T13:36:54;1.10;;;1.00;;
19593;SDS011;9944;48.240;16.478;2022-08-21T13:41:02;2.58;;;1.08;;
19593;SDS011;9944;48.240;16.478;2022-08-21T13:45:15;1.65;;;1.10;;
19593;SDS011;9944;48.240;16.478;2022-08-21T13:49:22;1.20;;;1.10;;
19593;SDS011;9944;48.240;16.478;2022-08-21T13:53:33;1.20;;;1.10;;
19593;SDS011;9944;48.240;16.478;2022-08-21T13:57:38;1.30;;;1.13;;
19593;SDS011;9944;48.240;16.478;2022-08-21T14:01:48;1.65;;;1.25;;
19593;SDS011;9944;48.240;16.478;2022-08-21T14:05:56;1.38;;;1.20;;
19593;SDS011;9944;48.240;16.478;2022-08-21T14:10:01;1.25;;;1.15;;
19593;SDS011;9944;48.240;16.478;2022-08-21T14:14:13;1.40;;;1.30;;
19593;SDS011;9944;48.240;16.478;2022-08-21T14:18:24;1.33;;;1.20;;
19593;SDS011;9944;48.240;16.478;2022-08-21T14:22:29;1.88;;;1.65;;
19593;SDS011;9944;48.240;16.478;2022-08-21T14:26:35;1.20;;;1.10;;
19593;SDS011;9944;48.240;16.478;2022-08-21T14:30:46;2.10;;;1.30;;
19593;SDS011;9944;48.240;16.478;2022-08-21T14:34:53;1.48;;;1.38;;
19593;SDS011;9944;48.240;16.478;2022-08-21T14:39:00;1.60;;;1.50;;
19593;SDS011;9944;48.240;16.478;2022-08-21T14:43:03;2.05;;;1.80;;
19593;SDS011;9944;48.240;16.478;2022-08-21T14:47:06;2.00;;;1.80;;
19593;SDS011;9944;48.240;16.478;2022-08-21T14:51:12;1.83;;;1.63;;
19593;SDS011;9944;48.240;16.478;2022-08-21T14:55:16;1.77;;;1.67;;
19593;SDS011;9944;48.240;16.478;2022-08-21T14:59:21;1.70;;;1.60;;
19593;SDS011;9944;48.240;16.478;2022-08-21T15:03:25;1.70;;;1.60;;
19593;SDS011;9944;48.240;16.478;2022-08-21T15:07:30;1.90;;;1.60;;
19593;SDS011;9944;48.240;16.478;2022-08-21T15:11:33;1.63;;;1.52;;
19593;SDS011;9944;48.240;16.478;2022-08-21T15:15:44;2.00;;;1.80;;
19593;SDS011;9944;48.240;16.478;2022-08-21T15:19:49;2.10;;;1.65;;
19593;SDS011;9944;48.240;16.478;2022-08-21T15:23:54;2.10;;;1.85;;
19593;SDS011;9944;48.240;16.478;2022-08-21T15:27:57;1.50;;;1.40;;
19593;SDS011;9944;48.240;16.478;2022-08-21T15:32:02;1.48;;;1.33;;
19593;SDS011;9944;48.240;16.478;2022-08-21T15:36:18;1.45;;;1.35;;
19593;SDS011;9944;48.240;16.478;2022-08-21T15:40:23;1.38;;;1.20;;
19593;SDS011;9944;48.240;16.478;2022-08-21T15:44:27;1.30;;;1.20;;
19593;SDS011;9944;48.240;16.478;2022-08-21T15:48:31;1.20;;;1.10;;
19593;SDS011;9944;48.240;16.478;2022-08-21T15:52:34;1.48;;;1.30;;
19593;SDS011;9944;48.240;16.478;2022-08-21T15:56:40;1.33;;;1.20;;
19593;SDS011;9944;48.240;16.478;2022-08-21T16:00:49;1.38;;;1.27;;
19593;SDS011;9944;48.240;16.478;2022-08-21T16:04:52;1.85;;;1.10;;
19593;SDS011;9944;48.240;16.478;2022-08-21T16:08:56;1.25;;;1.10;;
19593;SDS011;9944;48.240;16.478;2022-08-21T16:13:03;1.83;;;1.10;;
19593;SDS011;9944;48.240;16.478;2022-08-21T16:17:09;1.38;;;1.23;;
19593;SDS011;9944;48.240;16.478;2022-08-21T16:21:12;1.15;;;1.05;;
19593;SDS011;9944;48.240;16.478;2022-08-21T16:25:15;2.55;;;1.58;;
19593;SDS011;9944;48.240;16.478;2022-08-21T16:29:21;1.95;;;1.50;;
19593;SDS011;9944;48.240;16.478;2022-08-21T16:33:26;2.28;;;1.88;;
19593;SDS011;9944;48.240;16.478;2022-08-21T16:37:34;1.83;;;1.50;;
19593;SDS011;9944;48.240;16.478;2022-08-21T16:41:37;3.47;;;1.77;;
19593;SDS011;9944;48.240;16.478;2022-08-21T16:45:42;1.73;;;1.63;;
19593;SDS011;9944;48.240;16.478;2022-08-21T16:49:45;1.90;;;1.60;;
19593;SDS011;9944;48.240;16.478;2022-08-21T16:53:51;1.50;;;1.40;;
19593;SDS011;9944;48.240;16.478;2022-08-21T16:57:54;2.47;;;1.55;;
19593;SDS011;9944;48.240;16.478;2022-08-21T17:01:59;1.85;;;1.60;;
19593;SDS011;9944;48.240;16.478;2022-08-21T17:06:03;2.13;;;1.55;;
19593;SDS011;9944;48.240;16.478;2022-08-21T17:10:13;1.48;;;1.30;;
19593;SDS011;9944;48.240;16.478;2022-08-21T17:14:18;1.60;;;1.50;;
19593;SDS011;9944;48.240;16.478;2022-08-21T17:18:24;2.78;;;1.60;;
19593;SDS011;9944;48.240;16.478;2022-08-21T17:22:28;2.15;;;1.48;;
19593;SDS011;9944;48.240;16.478;2022-08-21T17:26:31;1.40;;;1.30;;
19593;SDS011;9944;48.240;16.478;2022-08-21T17:30:35;1.25;;;1.15;;
19593;SDS011;9944;48.240;16.478;2022-08-21T17:34:44;2.83;;;1.38;;
19593;SDS011;9944;48.240;16.478;2022-08-21T17:38:48;2.17;;;1.50;;
19593;SDS011;9944;48.240;16.478;2022-08-21T17:42:52;2.03;;;1.40;;
19593;SDS011;9944;48.240;16.478;2022-08-21T17:46:55;1.52;;;1.40;;
19593;SDS011;9944;48.240;16.478;2022-08-21T17:51:00;2.20;;;1.50;;
19593;SDS011;9944;48.240;16.478;2022-08-21T17:55:04;2.05;;;1.45;;
19593;SDS011;9944;48.240;16.478;2022-08-21T17:59:08;1.95;;;1.70;;
19593;SDS011;9944;48.240;16.478;2022-08-21T18:03:13;2.22;;;1.40;;
19593;SDS011;9944;48.240;16.478;2022-08-21T18:07:20;1.48;;;1.30;;
19593;SDS011;9944;48.240;16.478;2022-08-21T18:11:33;1.98;;;1.67;;
19593;SDS011;9944;48.240;16.478;2022-08-21T18:15:38;3.13;;;1.50;;
19593;SDS011;9944;48.240;16.478;2022-08-21T18:19:44;2.35;;;1.50;;
19593;SDS011;9944;48.240;16.478;2022-08-21T18:23:51;3.53;;;1.73;;
19593;SDS011;9944;48.240;16.478;2022-08-21T18:27:56;2.67;;;1.52;;
19593;SDS011;9944;48.240;16.478;2022-08-21T18:32:09;1.67;;;1.58;;
19593;SDS011;9944;48.240;16.478;2022-08-21T18:36:32;2.92;;;1.60;;
19593;SDS011;9944;48.240;16.478;2022-08-21T18:40:38;2.45;;;1.45;;
19593;SDS011;9944;48.240;16.478;2022-08-21T18:44:46;1.60;;;1.50;;
19593;SDS011;9944;48.240;16.478;2022-08-21T18:48:52;2.10;;;1.55;;
19593;SDS011;9944;48.240;16.478;2022-08-21T18:52:56;1.88;;;1.60;;
19593;SDS011;9944;48.240;16.478;2022-08-21T18:57:01;1.70;;;1.30;;
19593;SDS011;9944;48.240;16.478;2022-08-21T19:01:06;1.98;;;1.48;;
19593;SDS011;9944;48.240;16.478;2022-08-21T19:05:10;1.45;;;1.35;;
19593;SDS011;9944;48.240;16.478;2022-08-21T19:09:15;2.03;;;1.40;;
19593;SDS011;9944;48.240;16.478;2022-08-21T19:13:24;2.10;;;1.65;;
19593;SDS011;9944;48.240;16.478;2022-08-21T19:17:29;2.05;;;1.75;;
19593;SDS011;9944;48.240;16.478;2022-08-21T19:21:32;2.33;;;1.90;;
19593;SDS011;9944;48.240;16.478;2022-08-21T19:25:37;1.77;;;1.50;;
19593;SDS011;9944;48.240;16.478;2022-08-21T19:29:43;2.25;;;1.58;;
19593;SDS011;9944;48.240;16.478;2022-08-21T19:33:48;1.60;;;1.50;;
19593;SDS011;9944;48.240;16.478;2022-08-21T19:37:58;1.50;;;1.40;;
19593;SDS011;9944;48.240;16.478;2022-08-21T19:42:01;2.30;;;1.50;;
19593;SDS011;9944;48.240;16.478;2022-08-21T19:46:05;1.77;;;1.50;;
19593;SDS011;9944;48.240;16.478;2022-08-21T19:50:09;1.88;;;1.73;;
19593;SDS011;9944;48.240;16.478;2022-08-21T19:54:23;2.60;;;1.88;;
19593;SDS011;9944;48.240;16.478;2022-08-21T19:58:32;2.10;;;1.73;;
19593;SDS011;9944;48.240;16.478;2022-08-21T20:02:38;1.73;;;1.55;;
19593;SDS011;9944;48.240;16.478;2022-08-21T20:06:48;3.25;;;1.50;;
19593;SDS011;9944;48.240;16.478;2022-08-21T20:10:54;2.33;;;1.77;;
19593;SDS011;9944;48.240;16.478;2022-08-21T20:14:59;2.00;;;1.80;;
19593;SDS011;9944;48.240;16.478;2022-08-21T20:19:10;2.28;;;1.98;;
19593;SDS011;9944;48.240;16.478;2022-08-21T20:23:14;2.10;;;1.90;;
19593;SDS011;9944;48.240;16.478;2022-08-21T20:27:30;2.15;;;1.63;;
19593;SDS011;9944;48.240;16.478;2022-08-21T20:31:53;2.88;;;2.13;;
19593;SDS011;9944;48.240;16.478;2022-08-21T20:35:58;4.88;;;2.22;;
19593;SDS011;9944;48.240;16.478;2022-08-21T20:40:02;2.67;;;2.10;;
19593;SDS011;9944;48.240;16.478;2022-08-21T20:44:11;2.63;;;2.13;;
19593;SDS011;9944;48.240;16.478;2022-08-21T20:48:16;2.83;;;2.03;;
19593;SDS011;9944;48.240;16.478;2022-08-21T20:52:25;2.33;;;2.10;;
19593;SDS011;9944;48.240;16.478;2022-08-21T20:56:32;3.80;;;2.35;;
19593;SDS011;9944;48.240;16.478;2022-08-21T21:00:42;2.55;;;2.20;;
19593;SDS011;9944;48.240;16.478;2022-08-21T21:04:51;3.17;;;2.38;;
19593;SDS011;9944;48.240;16.478;2022-08-21T21:09:03;2.65;;;2.38;;
19593;SDS011;9944;48.240;16.478;2022-08-21T21:13:13;2.60;;;2.10;;
19593;SDS011;9944;48.240;16.478;2022-08-21T21:17:22;3.95;;;2.42;;
19593;SDS011;9944;48.240;16.478;2022-08-21T21:21:32;4.55;;;2.60;;
19593;SDS011;9944;48.240;16.478;2022-08-21T21:25:41;3.50;;;2.80;;
19593;SDS011;9944;48.240;16.478;2022-08-21T21:29:57;3.80;;;2.38;;
19593;SDS011;9944;48.240;16.478;2022-08-21T21:34:06;3.40;;;2.88;;
19593;SDS011;9944;48.240;16.478;2022-08-21T21:38:21;3.67;;;2.70;;
19593;SDS011;9944;48.240;16.478;2022-08-21T21:42:30;3.35;;;2.63;;
19593;SDS011;9944;48.240;16.478;2022-08-21T21:46:59;3.97;;;2.78;;
19593;SDS011;9944;48.240;16.478;2022-08-21T21:51:06;3.42;;;2.58;;
19593;SDS011;9944;48.240;16.478;2022-08-21T21:55:21;3.40;;;2.90;;
19593;SDS011;9944;48.240;16.478;2022-08-21T21:59:42;2.50;;;2.20;;
19593;SDS011;9944;48.240;16.478;2022-08-21T22:03:56;3.13;;;2.70;;
19593;SDS011;9944;48.240;16.478;2022-08-21T22:08:06;4.30;;;2.50;;
19593;SDS011;9944;48.240;16.478;2022-08-21T22:12:24;2.45;;;2.22;;
19593;SDS011;9944;48.240;16.478;2022-08-21T22:16:52;3.08;;;2.20;;
19593;SDS011;9944;48.240;16.478;2022-08-21T22:20:56;2.50;;;2.10;;
19593;SDS011;9944;48.240;16.478;2022-08-21T22:25:05;3.08;;;1.92;;
19593;SDS011;9944;48.240;16.478;2022-08-21T22:29:19;2.70;;;2.20;;
19593;SDS011;9944;48.240;16.478;2022-08-21T22:33:27;3.85;;;1.67;;
19593;SDS011;9944;48.240;16.478;2022-08-21T22:37:34;1.80;;;1.60;;
19593;SDS011;9944;48.240;16.478;2022-08-21T22:41:40;1.60;;;1.50;;
19593;SDS011;9944;48.240;16.478;2022-08-21T22:45:52;2.35;;;1.80;;
19593;SDS011;9944;48.240;16.478;2022-08-21T22:50:04;5.78;;;1.90;;
19593;SDS011;9944;48.240;16.478;2022-08-21T22:54:10;3.45;;;1.80;;
19593;SDS011;9944;48.240;16.478;2022-08-21T22:58:24;2.65;;;1.77;;
19593;SDS011;9944;48.240;16.478;2022-08-21T23:02:32;2.70;;;1.73;;
19593;SDS011;9944;48.240;16.478;2022-08-21T23:06:42;3.60;;;1.98;;
19593;SDS011;9944;48.240;16.478;2022-08-21T23:10:47;4.63;;;2.38;;
19593;SDS011;9944;48.240;16.478;2022-08-21T23:14:51;2.63;;;2.38;;
19593;SDS011;9944;48.240;16.478;2022-08-21T23:18:57;3.13;;;2.65;;
19593;SDS011;9944;48.240;16.478;2022-08-21T23:23:11;3.67;;;2.33;;
19593;SDS011;9944;48.240;16.478;2022-08-21T23:27:27;3.00;;;2.33;;
19593;SDS011;9944;48.240;16.478;2022-08-21T23:31:42;2.95;;;2.33;;
19593;SDS011;9944;48.240;16.478;2022-08-21T23:35:51;2.25;;;1.92;;
19593;SDS011;9944;48.240;16.478;2022-08-21T23:40:32;2.38;;;1.80;;
19593;SDS011;9944;48.240;16.478;2022-08-21T23:45:03;3.97;;;2.25;;
19593;SDS011;9944;48.240;16.478;2022-08-21T23:49:37;3.33;;;2.03;;
19593;SDS011;9944;48.240;16.478;2022-08-21T23:53:56;2.72;;;2.10;;
19593;SDS011;9944;48.240;16.478;2022-08-21T23:58:14;2.78;;;2.10;;
